Mahanoy Plane, Pennsylvania
Current Conditions -  °F | °C
As of 9:55 PM on Sunday 23 Nov 2014 (Local Time) from KHZL Reporting Station
Overcast Overcast  
Wind Chill:   Ceiling: 3100
Heat Index:   Visibility: 10mi
Dew Point:   Wind: 10mph
Humidity: 62%   Direction: 130°SE
Pressure: 29.97"   Gusts: 20mph
Location:  40.79°N, 76.24°W
Report Text: KHZL 240255Z AUTO 13009G17KT 10SM OVC031 08/01 A2997 RMK AO2 LTG DSNT S
Loading
Personal Weather Stations






























Interactive Weather Map New forecast layout! Learn more

10-Day Weather Forecast

Advertisements
Track Severe Weather on mobile